Terminal Aerodrome Forecast
Issued by NWS

Home | Current Version | Previous Version | Text Only | Print | Product List | Glossary On
Versions: 1 2 3 4 5 6 7 8 9 10 11 12 13 14 15
000
FTUS43 KEAX 211400 AAA
TAFSTJ
TAF AMD
KSTJ 211435Z 2115/2212 20007KT P6SM VCSH OVC060
      TEMPO 2115/2117 5SM -SHRA BKN025
     FM211700 31010KT P6SM -SHRA VCTS BKN035CB
     FM212000 33012G20KT P6SM SCT035
     FM212300 35005KT P6SM SKC=

USA.gov is the U.S. government's official web portal to all federal, state and local government web resources and services.